sensor_id;sensor_type;location;lat;lon;timestamp;pressure;altitude;pressure_sealevel;temperature;humidity
56825;BME280;42705;50.326;18.772;2023-04-27T00:03:51;98643.42;;;4.71;52.65
56825;BME280;42705;50.326;18.772;2023-04-27T00:09:12;98646.44;;;4.64;52.97
56825;BME280;42705;50.326;18.772;2023-04-27T00:14:34;98643.14;;;4.65;53.09
56825;BME280;42705;50.326;18.772;2023-04-27T00:19:56;98638.33;;;4.64;53.26
56825;BME280;42705;50.326;18.772;2023-04-27T00:25:18;98633.36;;;4.58;53.22
56825;BME280;42705;50.326;18.772;2023-04-27T00:30:39;98629.89;;;4.47;53.58
56825;BME280;42705;50.326;18.772;2023-04-27T00:36:01;98634.20;;;4.45;53.65
56825;BME280;42705;50.326;18.772;2023-04-27T00:41:23;98633.76;;;4.43;53.83
56825;BME280;42705;50.326;18.772;2023-04-27T00:46:45;98631.91;;;4.42;53.96
56825;BME280;42705;50.326;18.772;2023-04-27T00:52:08;98639.38;;;4.42;53.87
56825;BME280;42705;50.326;18.772;2023-04-27T00:57:30;98642.34;;;4.39;54.01
56825;BME280;42705;50.326;18.772;2023-04-27T01:02:52;98645.83;;;4.33;54.06
56825;BME280;42705;50.326;18.772;2023-04-27T01:08:14;98644.71;;;4.28;54.14
56825;BME280;42705;50.326;18.772;2023-04-27T01:13:36;98640.64;;;4.27;54.20
56825;BME280;42705;50.326;18.772;2023-04-27T01:18:57;98641.96;;;4.28;54.21
56825;BME280;42705;50.326;18.772;2023-04-27T01:24:20;98646.65;;;4.30;54.61
56825;BME280;42705;50.326;18.772;2023-04-27T01:29:42;98647.95;;;4.35;54.72
56825;BME280;42705;50.326;18.772;2023-04-27T01:35:05;98649.50;;;4.38;54.46
56825;BME280;42705;50.326;18.772;2023-04-27T01:40:27;98650.38;;;4.40;54.73
56825;BME280;42705;50.326;18.772;2023-04-27T01:45:49;98653.98;;;4.44;54.92
56825;BME280;42705;50.326;18.772;2023-04-27T01:51:10;98655.77;;;4.48;54.71
56825;BME280;42705;50.326;18.772;2023-04-27T01:56:32;98653.78;;;4.52;54.91
56825;BME280;42705;50.326;18.772;2023-04-27T02:01:56;98652.70;;;4.53;54.88
56825;BME280;42705;50.326;18.772;2023-04-27T02:07:18;98653.16;;;4.54;55.02
56825;BME280;42705;50.326;18.772;2023-04-27T02:12:40;98654.27;;;4.50;54.92
56825;BME280;42705;50.326;18.772;2023-04-27T02:18:03;98651.98;;;4.43;55.07
56825;BME280;42705;50.326;18.772;2023-04-27T02:23:25;98650.61;;;4.39;55.18
56825;BME280;42705;50.326;18.772;2023-04-27T02:28:47;98650.73;;;4.34;55.22
56825;BME280;42705;50.326;18.772;2023-04-27T02:34:09;98655.89;;;4.27;55.34
56825;BME280;42705;50.326;18.772;2023-04-27T02:39:31;98656.02;;;4.22;55.27
56825;BME280;42705;50.326;18.772;2023-04-27T02:44:53;98659.88;;;4.18;55.68
56825;BME280;42705;50.326;18.772;2023-04-27T02:50:14;98656.57;;;4.18;55.57
56825;BME280;42705;50.326;18.772;2023-04-27T02:55:37;98654.54;;;4.17;55.93
56825;BME280;42705;50.326;18.772;2023-04-27T03:00:59;98659.63;;;4.11;55.75
56825;BME280;42705;50.326;18.772;2023-04-27T03:06:21;98658.39;;;4.00;56.18
56825;BME280;42705;50.326;18.772;2023-04-27T03:11:43;98661.56;;;3.96;56.31
56825;BME280;42705;50.326;18.772;2023-04-27T03:17:05;98665.28;;;3.91;56.42
56825;BME280;42705;50.326;18.772;2023-04-27T03:22:27;98667.80;;;3.87;56.77
56825;BME280;42705;50.326;18.772;2023-04-27T03:27:48;98672.34;;;3.88;56.66
56825;BME280;42705;50.326;18.772;2023-04-27T03:33:11;98673.80;;;3.90;57.21
56825;BME280;42705;50.326;18.772;2023-04-27T03:38:33;98674.44;;;3.94;57.06
56825;BME280;42705;50.326;18.772;2023-04-27T03:43:55;98677.03;;;3.97;57.33
56825;BME280;42705;50.326;18.772;2023-04-27T03:49:17;98685.02;;;4.02;57.26
56825;BME280;42705;50.326;18.772;2023-04-27T03:54:40;98686.35;;;4.09;57.11
56825;BME280;42705;50.326;18.772;2023-04-27T04:00:01;98688.95;;;4.15;57.41
56825;BME280;42705;50.326;18.772;2023-04-27T04:05:34;98696.17;;;4.21;57.35
56825;BME280;42705;50.326;18.772;2023-04-27T04:10:56;98700.00;;;4.29;57.50
56825;BME280;42705;50.326;18.772;2023-04-27T04:16:18;98700.05;;;4.37;57.17
56825;BME280;42705;50.326;18.772;2023-04-27T04:21:40;98703.34;;;4.34;57.28
56825;BME280;42705;50.326;18.772;2023-04-27T04:27:03;98706.09;;;4.34;56.82
56825;BME280;42705;50.326;18.772;2023-04-27T04:32:25;98711.64;;;4.37;57.33
56825;BME280;42705;50.326;18.772;2023-04-27T04:37:50;98717.42;;;4.32;57.30
56825;BME280;42705;50.326;18.772;2023-04-27T04:43:12;98721.73;;;4.21;57.57
56825;BME280;42705;50.326;18.772;2023-04-27T04:48:34;98721.77;;;4.12;57.63
56825;BME280;42705;50.326;18.772;2023-04-27T04:53:56;98726.63;;;4.03;57.93
56825;BME280;42705;50.326;18.772;2023-04-27T04:59:18;98735.11;;;3.94;58.15
56825;BME280;42705;50.326;18.772;2023-04-27T05:04:41;98739.20;;;3.95;58.48
56825;BME280;42705;50.326;18.772;2023-04-27T05:10:03;98747.27;;;4.02;58.61
56825;BME280;42705;50.326;18.772;2023-04-27T05:15:25;98754.24;;;4.07;58.42
56825;BME280;42705;50.326;18.772;2023-04-27T05:20:47;98754.86;;;4.13;58.41
56825;BME280;42705;50.326;18.772;2023-04-27T05:26:13;98757.42;;;4.20;58.70
56825;BME280;42705;50.326;18.772;2023-04-27T05:31:35;98756.11;;;4.27;58.31
56825;BME280;42705;50.326;18.772;2023-04-27T05:36:57;98762.29;;;4.31;58.20
56825;BME280;42705;50.326;18.772;2023-04-27T05:42:18;98764.02;;;4.43;58.04
56825;BME280;42705;50.326;18.772;2023-04-27T05:47:40;98768.13;;;4.61;58.20
56825;BME280;42705;50.326;18.772;2023-04-27T05:53:03;98770.73;;;4.83;58.15
56825;BME280;42705;50.326;18.772;2023-04-27T05:58:26;98774.17;;;5.00;58.10
56825;BME280;42705;50.326;18.772;2023-04-27T06:03:48;98779.58;;;5.14;57.60
56825;BME280;42705;50.326;18.772;2023-04-27T06:09:09;98782.77;;;5.26;57.57
56825;BME280;42705;50.326;18.772;2023-04-27T06:14:32;98787.35;;;5.42;57.30
56825;BME280;42705;50.326;18.772;2023-04-27T06:19:54;98788.23;;;5.58;56.85
56825;BME280;42705;50.326;18.772;2023-04-27T06:25:16;98790.67;;;5.73;56.57
56825;BME280;42705;50.326;18.772;2023-04-27T06:30:38;98787.77;;;5.89;56.09
56825;BME280;42705;50.326;18.772;2023-04-27T06:36:00;98790.55;;;6.02;55.83
56825;BME280;42705;50.326;18.772;2023-04-27T06:41:25;98794.00;;;6.16;55.81
56825;BME280;42705;50.326;18.772;2023-04-27T06:46:47;98801.41;;;6.29;55.31
56825;BME280;42705;50.326;18.772;2023-04-27T06:52:09;98808.30;;;6.43;55.00
56825;BME280;42705;50.326;18.772;2023-04-27T06:57:31;98808.94;;;6.51;54.55
56825;BME280;42705;50.326;18.772;2023-04-27T07:02:53;98808.16;;;6.60;54.02
56825;BME280;42705;50.326;18.772;2023-04-27T07:08:15;98801.54;;;6.68;54.00
56825;BME280;42705;50.326;18.772;2023-04-27T07:13:37;98791.50;;;6.80;53.87
56825;BME280;42705;50.326;18.772;2023-04-27T07:18:58;98793.03;;;6.96;53.56
56825;BME280;42705;50.326;18.772;2023-04-27T07:24:20;98794.45;;;7.13;53.11
56825;BME280;42705;50.326;18.772;2023-04-27T07:29:42;98790.85;;;7.29;52.61
56825;BME280;42705;50.326;18.772;2023-04-27T07:35:04;98791.67;;;7.52;51.95
56825;BME280;42705;50.326;18.772;2023-04-27T07:40:26;98787.69;;;7.80;51.70
56825;BME280;42705;50.326;18.772;2023-04-27T07:45:48;98781.14;;;8.08;51.30
56825;BME280;42705;50.326;18.772;2023-04-27T07:51:10;98780.55;;;8.36;50.43
56825;BME280;42705;50.326;18.772;2023-04-27T07:56:39;98780.62;;;8.56;49.78
56825;BME280;42705;50.326;18.772;2023-04-27T08:02:01;98781.63;;;8.75;49.06
56825;BME280;42705;50.326;18.772;2023-04-27T08:07:23;98787.10;;;8.80;47.84
56825;BME280;42705;50.326;18.772;2023-04-27T08:12:45;98790.41;;;8.71;46.23
56825;BME280;42705;50.326;18.772;2023-04-27T08:18:07;98786.45;;;8.57;45.83
56825;BME280;42705;50.326;18.772;2023-04-27T08:23:29;98794.84;;;8.52;45.67
56825;BME280;42705;50.326;18.772;2023-04-27T08:28:51;98797.64;;;8.40;45.26
56825;BME280;42705;50.326;18.772;2023-04-27T08:34:13;98794.96;;;8.44;45.30
56825;BME280;42705;50.326;18.772;2023-04-27T08:39:35;98799.45;;;8.56;45.08
56825;BME280;42705;50.326;18.772;2023-04-27T08:44:57;98802.83;;;8.57;44.74
56825;BME280;42705;50.326;18.772;2023-04-27T08:50:18;98798.15;;;8.66;44.35
56825;BME280;42705;50.326;18.772;2023-04-27T08:55:40;98797.36;;;8.79;44.11
56825;BME280;42705;50.326;18.772;2023-04-27T09:01:05;98799.00;;;8.95;44.14
56825;BME280;42705;50.326;18.772;2023-04-27T09:06:32;98792.80;;;9.10;43.85
56825;BME280;42705;50.326;18.772;2023-04-27T09:11:54;98792.83;;;9.25;43.40
56825;BME280;42705;50.326;18.772;2023-04-27T09:17:15;98790.36;;;9.35;42.92
56825;BME280;42705;50.326;18.772;2023-04-27T09:22:45;98791.69;;;9.46;42.33
56825;BME280;42705;50.326;18.772;2023-04-27T09:28:07;98786.27;;;9.66;41.69
56825;BME280;42705;50.326;18.772;2023-04-27T09:33:30;98783.66;;;9.85;41.39
56825;BME280;42705;50.326;18.772;2023-04-27T09:38:52;98785.40;;;10.02;40.91
56825;BME280;42705;50.326;18.772;2023-04-27T09:44:14;98791.66;;;10.02;41.22
56825;BME280;42705;50.326;18.772;2023-04-27T09:49:36;98798.28;;;10.00;41.05
56825;BME280;42705;50.326;18.772;2023-04-27T09:54:59;98796.09;;;9.95;41.26
56825;BME280;42705;50.326;18.772;2023-04-27T10:05:49;98802.23;;;9.96;41.36
56825;BME280;42705;50.326;18.772;2023-04-27T10:11:20;98798.89;;;9.95;40.72
56825;BME280;42705;50.326;18.772;2023-04-27T10:16:44;98797.04;;;10.11;40.62
56825;BME280;42705;50.326;18.772;2023-04-27T10:22:09;98797.58;;;10.23;40.34
56825;BME280;42705;50.326;18.772;2023-04-27T10:27:37;98799.90;;;10.35;40.21
56825;BME280;42705;50.326;18.772;2023-04-27T10:33:03;98799.65;;;10.47;40.06
56825;BME280;42705;50.326;18.772;2023-04-27T10:38:28;98795.38;;;10.52;39.44
56825;BME280;42705;50.326;18.772;2023-04-27T10:43:50;98799.08;;;10.60;39.16
56825;BME280;42705;50.326;18.772;2023-04-27T10:49:13;98795.98;;;10.43;39.41
56825;BME280;42705;50.326;18.772;2023-04-27T10:54:36;98798.91;;;10.39;39.67
56825;BME280;42705;50.326;18.772;2023-04-27T11:00:00;98803.63;;;10.18;39.61
56825;BME280;42705;50.326;18.772;2023-04-27T11:05:25;98808.93;;;9.94;39.54
56825;BME280;42705;50.326;18.772;2023-04-27T11:10:51;98806.11;;;9.73;39.64
56825;BME280;42705;50.326;18.772;2023-04-27T11:16:15;98808.30;;;9.69;39.70
56825;BME280;42705;50.326;18.772;2023-04-27T11:21:37;98811.17;;;9.83;39.81
56825;BME280;42705;50.326;18.772;2023-04-27T11:26:59;98805.14;;;10.29;39.96
56825;BME280;42705;50.326;18.772;2023-04-27T11:32:21;98804.60;;;10.55;39.38
56825;BME280;42705;50.326;18.772;2023-04-27T11:37:43;98803.38;;;10.59;39.01
56825;BME280;42705;50.326;18.772;2023-04-27T11:43:05;98804.89;;;10.51;38.48
56825;BME280;42705;50.326;18.772;2023-04-27T11:48:27;98808.73;;;10.51;38.49
56825;BME280;42705;50.326;18.772;2023-04-27T11:53:49;98804.01;;;10.60;38.72
56825;BME280;42705;50.326;18.772;2023-04-27T11:59:19;98812.66;;;10.79;38.59
56825;BME280;42705;50.326;18.772;2023-04-27T12:04:41;98817.11;;;10.92;38.30
56825;BME280;42705;50.326;18.772;2023-04-27T12:10:04;98814.08;;;11.11;38.36
56825;BME280;42705;50.326;18.772;2023-04-27T12:15:26;98811.39;;;11.38;37.93
56825;BME280;42705;50.326;18.772;2023-04-27T12:20:48;98814.00;;;11.66;37.83
56825;BME280;42705;50.326;18.772;2023-04-27T12:26:10;98815.52;;;11.82;37.69
56825;BME280;42705;50.326;18.772;2023-04-27T12:31:32;98814.27;;;11.94;37.11
56825;BME280;42705;50.326;18.772;2023-04-27T12:36:54;98803.23;;;12.00;36.96
56825;BME280;42705;50.326;18.772;2023-04-27T12:42:16;98805.91;;;12.14;37.08
56825;BME280;42705;50.326;18.772;2023-04-27T12:47:43;98809.48;;;12.24;36.37
56825;BME280;42705;50.326;18.772;2023-04-27T12:53:06;98807.70;;;12.55;36.29
56825;BME280;42705;50.326;18.772;2023-04-27T12:58:28;98805.01;;;13.15;35.98
56825;BME280;42705;50.326;18.772;2023-04-27T13:03:50;98800.61;;;13.78;35.53
56825;BME280;42705;50.326;18.772;2023-04-27T13:09:13;98796.23;;;13.85;35.34
56825;BME280;42705;50.326;18.772;2023-04-27T13:14:37;98793.32;;;13.75;35.21
56825;BME280;42705;50.326;18.772;2023-04-27T13:19:59;98788.35;;;14.02;35.21
56825;BME280;42705;50.326;18.772;2023-04-27T13:25:22;98778.10;;;16.20;33.39
56825;BME280;42705;50.326;18.772;2023-04-27T13:30:44;98782.65;;;19.40;29.84
56825;BME280;42705;50.326;18.772;2023-04-27T13:36:06;98775.01;;;22.27;26.81
56825;BME280;42705;50.326;18.772;2023-04-27T13:41:28;98775.14;;;21.83;27.00
56825;BME280;42705;50.326;18.772;2023-04-27T13:46:51;98780.64;;;20.14;28.29
56825;BME280;42705;50.326;18.772;2023-04-27T13:52:14;98784.30;;;19.23;27.68
56825;BME280;42705;50.326;18.772;2023-04-27T13:57:36;98783.57;;;20.15;26.88
56825;BME280;42705;50.326;18.772;2023-04-27T14:02:59;98786.79;;;19.02;27.33
56825;BME280;42705;50.326;18.772;2023-04-27T14:08:21;98784.39;;;17.73;27.88
56825;BME280;42705;50.326;18.772;2023-04-27T14:13:43;98790.22;;;16.71;28.84
56825;BME280;42705;50.326;18.772;2023-04-27T14:19:05;98792.14;;;15.71;29.88
56825;BME280;42705;50.326;18.772;2023-04-27T14:24:27;98798.67;;;14.88;30.84
56825;BME280;42705;50.326;18.772;2023-04-27T14:29:51;98808.16;;;14.06;31.43
56825;BME280;42705;50.326;18.772;2023-04-27T14:35:14;98802.50;;;13.40;32.08
56825;BME280;42705;50.326;18.772;2023-04-27T14:40:36;98811.72;;;13.22;32.86
56825;BME280;42705;50.326;18.772;2023-04-27T14:45:59;98808.73;;;15.00;31.85
56825;BME280;42705;50.326;18.772;2023-04-27T14:51:22;98806.52;;;17.57;30.65
56825;BME280;42705;50.326;18.772;2023-04-27T14:56:44;98810.66;;;19.07;29.47
56825;BME280;42705;50.326;18.772;2023-04-27T15:02:07;98813.02;;;18.81;29.12
56825;BME280;42705;50.326;18.772;2023-04-27T15:07:29;98813.32;;;19.02;28.72
56825;BME280;42705;50.326;18.772;2023-04-27T15:12:51;98814.19;;;19.48;28.23
56825;BME280;42705;50.326;18.772;2023-04-27T15:18:13;98815.34;;;18.57;28.54
56825;BME280;42705;50.326;18.772;2023-04-27T15:23:35;98821.85;;;17.39;28.86
56825;BME280;42705;50.326;18.772;2023-04-27T15:28:57;98825.43;;;16.27;29.32
56825;BME280;42705;50.326;18.772;2023-04-27T15:34:20;98829.82;;;15.39;29.96
56825;BME280;42705;50.326;18.772;2023-04-27T15:39:42;98826.36;;;14.54;30.62
56825;BME280;42705;50.326;18.772;2023-04-27T15:45:05;98823.42;;;13.87;31.49
56825;BME280;42705;50.326;18.772;2023-04-27T15:50:28;98824.59;;;13.53;32.21
56825;BME280;42705;50.326;18.772;2023-04-27T15:55:50;98823.10;;;13.41;32.63
56825;BME280;42705;50.326;18.772;2023-04-27T16:01:13;98827.66;;;13.17;32.91
56825;BME280;42705;50.326;18.772;2023-04-27T16:06:36;98823.72;;;13.12;33.23
56825;BME280;42705;50.326;18.772;2023-04-27T16:11:58;98821.55;;;13.13;33.43
56825;BME280;42705;50.326;18.772;2023-04-27T16:17:20;98822.84;;;13.44;33.34
56825;BME280;42705;50.326;18.772;2023-04-27T16:22:43;98824.38;;;13.46;33.53
56825;BME280;42705;50.326;18.772;2023-04-27T16:28:05;98825.29;;;13.55;33.56
56825;BME280;42705;50.326;18.772;2023-04-27T16:33:27;98824.60;;;13.34;33.50
56825;BME280;42705;50.326;18.772;2023-04-27T16:38:49;98825.00;;;12.93;33.70
56825;BME280;42705;50.326;18.772;2023-04-27T16:44:11;98830.91;;;12.60;33.92
56825;BME280;42705;50.326;18.772;2023-04-27T16:49:34;98831.59;;;12.24;34.26
56825;BME280;42705;50.326;18.772;2023-04-27T16:54:57;98837.70;;;12.03;34.69
56825;BME280;42705;50.326;18.772;2023-04-27T17:00:20;98840.58;;;11.88;35.05
56825;BME280;42705;50.326;18.772;2023-04-27T17:05:43;98838.65;;;11.74;35.19
56825;BME280;42705;50.326;18.772;2023-04-27T17:11:08;98847.73;;;11.57;35.34
56825;BME280;42705;50.326;18.772;2023-04-27T17:16:30;98853.32;;;11.44;35.75
56825;BME280;42705;50.326;18.772;2023-04-27T17:21:52;98857.92;;;11.52;35.54
56825;BME280;42705;50.326;18.772;2023-04-27T17:27:14;98860.44;;;11.59;35.14
56825;BME280;42705;50.326;18.772;2023-04-27T17:32:37;98863.41;;;11.55;35.33
56825;BME280;42705;50.326;18.772;2023-04-27T17:37:59;98852.98;;;11.49;35.25
56825;BME280;42705;50.326;18.772;2023-04-27T17:43:21;98855.58;;;11.31;35.48
56825;BME280;42705;50.326;18.772;2023-04-27T17:48:45;98853.25;;;11.05;35.84
56825;BME280;42705;50.326;18.772;2023-04-27T17:54:07;98856.64;;;10.74;35.92
56825;BME280;42705;50.326;18.772;2023-04-27T17:59:31;98855.34;;;10.47;36.19
56825;BME280;42705;50.326;18.772;2023-04-27T18:04:55;98857.79;;;10.22;36.64
56825;BME280;42705;50.326;18.772;2023-04-27T18:10:18;98859.14;;;9.99;36.79
56825;BME280;42705;50.326;18.772;2023-04-27T18:15:40;98862.66;;;9.76;37.13
56825;BME280;42705;50.326;18.772;2023-04-27T18:21:02;98863.20;;;9.57;37.59
56825;BME280;42705;50.326;18.772;2023-04-27T18:26:26;98872.67;;;9.40;37.75
56825;BME280;42705;50.326;18.772;2023-04-27T18:31:51;98876.16;;;9.23;37.94
56825;BME280;42705;50.326;18.772;2023-04-27T18:37:13;98881.14;;;9.08;38.81
56825;BME280;42705;50.326;18.772;2023-04-27T18:42:37;98885.02;;;8.94;38.93
56825;BME280;42705;50.326;18.772;2023-04-27T18:48:00;98889.64;;;8.79;39.57
56825;BME280;42705;50.326;18.772;2023-04-27T18:53:22;98891.29;;;8.62;39.77
56825;BME280;42705;50.326;18.772;2023-04-27T18:58:46;98892.15;;;8.42;40.31
56825;BME280;42705;50.326;18.772;2023-04-27T19:04:11;98898.84;;;8.22;40.71
56825;BME280;42705;50.326;18.772;2023-04-27T19:09:33;98901.92;;;8.07;41.36
56825;BME280;42705;50.326;18.772;2023-04-27T19:14:58;98901.27;;;7.97;41.70
56825;BME280;42705;50.326;18.772;2023-04-27T19:20:23;98900.50;;;7.88;42.01
56825;BME280;42705;50.326;18.772;2023-04-27T19:25:50;98905.28;;;7.77;42.14
56825;BME280;42705;50.326;18.772;2023-04-27T19:31:15;98909.21;;;7.68;42.36
56825;BME280;42705;50.326;18.772;2023-04-27T19:36:37;98916.23;;;7.62;42.61
56825;BME280;42705;50.326;18.772;2023-04-27T19:42:00;98918.70;;;7.57;42.61
56825;BME280;42705;50.326;18.772;2023-04-27T19:47:22;98917.15;;;7.52;42.84
56825;BME280;42705;50.326;18.772;2023-04-27T19:52:44;98911.59;;;7.47;43.08
56825;BME280;42705;50.326;18.772;2023-04-27T19:58:06;98913.29;;;7.40;43.36
56825;BME280;42705;50.326;18.772;2023-04-27T20:03:29;98916.46;;;7.32;43.53
56825;BME280;42705;50.326;18.772;2023-04-27T20:08:51;98915.25;;;7.24;43.86
56825;BME280;42705;50.326;18.772;2023-04-27T20:14:13;98915.64;;;7.16;44.03
56825;BME280;42705;50.326;18.772;2023-04-27T20:19:36;98923.52;;;7.08;44.15
56825;BME280;42705;50.326;18.772;2023-04-27T20:25:01;98922.15;;;7.00;44.20
56825;BME280;42705;50.326;18.772;2023-04-27T20:30:24;98926.25;;;6.93;44.36
56825;BME280;42705;50.326;18.772;2023-04-27T20:35:48;98924.91;;;6.87;44.51
56825;BME280;42705;50.326;18.772;2023-04-27T20:41:14;98928.54;;;6.82;44.77
56825;BME280;42705;50.326;18.772;2023-04-27T20:46:36;98928.27;;;6.78;44.81
56825;BME280;42705;50.326;18.772;2023-04-27T20:51:58;98926.96;;;6.72;44.89
56825;BME280;42705;50.326;18.772;2023-04-27T20:57:21;98928.93;;;6.69;45.13
56825;BME280;42705;50.326;18.772;2023-04-27T21:02:44;98926.74;;;6.65;45.28
56825;BME280;42705;50.326;18.772;2023-04-27T21:08:07;98927.33;;;6.61;45.63
56825;BME280;42705;50.326;18.772;2023-04-27T21:13:29;98930.95;;;6.56;46.11
56825;BME280;42705;50.326;18.772;2023-04-27T21:18:51;98932.62;;;6.47;46.17
56825;BME280;42705;50.326;18.772;2023-04-27T21:24:13;98926.90;;;6.39;46.36
56825;BME280;42705;50.326;18.772;2023-04-27T21:29:35;98927.48;;;6.33;46.52
56825;BME280;42705;50.326;18.772;2023-04-27T21:34:57;98929.04;;;6.27;46.43
56825;BME280;42705;50.326;18.772;2023-04-27T21:40:19;98931.72;;;6.23;46.77
56825;BME280;42705;50.326;18.772;2023-04-27T21:45:41;98934.14;;;6.18;47.20
56825;BME280;42705;50.326;18.772;2023-04-27T21:51:03;98934.73;;;6.12;47.44
56825;BME280;42705;50.326;18.772;2023-04-27T21:56:25;98932.19;;;6.05;48.00
56825;BME280;42705;50.326;18.772;2023-04-27T22:01:46;98934.67;;;5.99;48.33
56825;BME280;42705;50.326;18.772;2023-04-27T22:07:08;98932.85;;;5.92;48.78
56825;BME280;42705;50.326;18.772;2023-04-27T22:12:30;98934.39;;;5.87;48.77
56825;BME280;42705;50.326;18.772;2023-04-27T22:17:52;98935.48;;;5.83;49.10
56825;BME280;42705;50.326;18.772;2023-04-27T22:23:14;98934.27;;;5.77;49.13
56825;BME280;42705;50.326;18.772;2023-04-27T22:28:36;98936.42;;;5.71;49.34
56825;BME280;42705;50.326;18.772;2023-04-27T22:33:57;98939.59;;;5.64;49.62
56825;BME280;42705;50.326;18.772;2023-04-27T22:39:19;98945.48;;;5.59;49.80
56825;BME280;42705;50.326;18.772;2023-04-27T22:44:41;98946.38;;;5.53;50.15
56825;BME280;42705;50.326;18.772;2023-04-27T22:50:03;98947.73;;;5.50;50.23
56825;BME280;42705;50.326;18.772;2023-04-27T22:55:26;98948.98;;;5.50;50.58
56825;BME280;42705;50.326;18.772;2023-04-27T23:00:48;98940.19;;;5.52;50.69
56825;BME280;42705;50.326;18.772;2023-04-27T23:06:11;98939.18;;;5.57;50.68
56825;BME280;42705;50.326;18.772;2023-04-27T23:11:34;98937.39;;;5.64;51.02
56825;BME280;42705;50.326;18.772;2023-04-27T23:16:57;98934.23;;;5.70;51.21
56825;BME280;42705;50.326;18.772;2023-04-27T23:22:18;98934.17;;;5.76;51.38
56825;BME280;42705;50.326;18.772;2023-04-27T23:27:40;98934.73;;;5.84;51.83
56825;BME280;42705;50.326;18.772;2023-04-27T23:33:02;98930.52;;;5.90;51.98
56825;BME280;42705;50.326;18.772;2023-04-27T23:38:24;98928.67;;;5.95;51.56
56825;BME280;42705;50.326;18.772;2023-04-27T23:43:45;98924.36;;;6.00;51.52
56825;BME280;42705;50.326;18.772;2023-04-27T23:49:08;98918.96;;;6.06;51.47
56825;BME280;42705;50.326;18.772;2023-04-27T23:54:29;98918.77;;;6.12;51.47
56825;BME280;42705;50.326;18.772;2023-04-27T23:59:52;98912.04;;;6.16;51.37
